Terminal Aerodrome Forecast
Issued by NWS Wilmington, OH

Current Version | Previous Version | Text Only | Print | Product List | Glossary Off
Versions: 1 2 3 4 5 6 7 8 9 10 11 12 13 14 15 16 17 18 19 20 21

000
FTUS41 KILN 161200 AAA
TAFDAY
TAF AMD
KDAY 161228Z 1612/1712 12010KT P6SM VCSH OVC035
      TEMPO 1612/1615 5SM -SHRA OVC025
     FM161500 16010KT P6SM VCSH OVC025
     FM162100 19006KT 5SM -SHRA VCTS OVC020CB
     FM170400 23005KT 4SM BR OVC010=

USA.gov is the U.S. government's official web portal to all federal, state and local government web resources and services.